createdAt,value
2023-01-18T00:01:36.072Z,58.49
2023-01-18T00:04:05.080Z,58.23
2023-01-18T00:06:34.179Z,58.61
2023-01-18T00:09:02.857Z,58.25
2023-01-18T00:11:31.850Z,59.04
2023-01-18T00:14:03.616Z,58.35
2023-01-18T00:16:32.540Z,59.24
2023-01-18T00:19:03.642Z,58.71
2023-01-18T00:21:32.329Z,58.74
2023-01-18T00:24:01.211Z,59.05
2023-01-18T00:26:29.931Z,58.56
2023-01-18T00:29:01.517Z,58.24
2023-01-18T00:31:30.305Z,59.45
2023-01-18T00:33:59.132Z,58.62
2023-01-18T00:36:27.989Z,59.20
2023-01-18T00:38:56.720Z,58.18
2023-01-18T00:41:26.449Z,59.09
2023-01-18T00:43:55.574Z,58.85
2023-01-18T00:46:28.147Z,58.28
2023-01-18T00:48:59.649Z,59.41
2023-01-18T00:51:28.562Z,58.44
2023-01-18T00:53:57.416Z,58.41
2023-01-18T00:56:26.258Z,58.84
2023-01-18T00:58:54.998Z,58.46
2023-01-18T01:01:25.044Z,58.96
2023-01-18T01:04:12.097Z,58.70
2023-01-18T01:06:47.420Z,58.58
2023-01-18T01:09:25.934Z,59.13
2023-01-18T01:12:13.239Z,59.17
2023-01-18T01:15:05.034Z,59.06
2023-01-18T01:17:55.110Z,59.53
2023-01-18T01:20:44.259Z,58.83
2023-01-18T01:23:36.346Z,58.99
2023-01-18T01:26:07.131Z,58.89
2023-01-18T01:28:44.935Z,59.65
2023-01-18T01:31:15.678Z,59.53
2023-01-18T01:33:45.760Z,58.65
2023-01-18T01:36:17.178Z,59.17
2023-01-18T01:38:46.544Z,59.45
2023-01-18T01:41:20.973Z,59.59
2023-01-18T01:43:52.037Z,59.54
2023-01-18T01:46:40.520Z,59.11
2023-01-18T01:49:14.942Z,58.97
2023-01-18T01:51:47.367Z,58.85
2023-01-18T01:54:23.233Z,58.79
2023-01-18T01:56:53.734Z,59.07
2023-01-18T01:59:22.879Z,58.89
2023-01-18T02:01:51.744Z,59.48
2023-01-18T02:04:20.498Z,59.16
2023-01-18T02:06:48.944Z,58.92
2023-01-18T02:09:17.690Z,59.66
2023-01-18T02:11:46.209Z,59.52
2023-01-18T02:14:17.412Z,59.62
2023-01-18T02:17:05.692Z,59.72
2023-01-18T02:19:49.348Z,59.53
2023-01-18T02:22:56.486Z,59.71
2023-01-18T02:25:35.873Z,60.02
2023-01-18T02:28:17.768Z,59.37
2023-01-18T02:30:59.087Z,59.58
2023-01-18T02:33:51.470Z,59.48
2023-01-18T02:36:32.612Z,59.74
2023-01-18T02:39:24.016Z,59.86
2023-01-18T02:42:23.633Z,59.80
2023-01-18T02:45:10.918Z,59.81
2023-01-18T02:47:39.814Z,59.96
2023-01-18T02:50:08.972Z,60.13
2023-01-18T02:52:48.303Z,59.97
2023-01-18T02:55:28.943Z,60.20
2023-01-18T02:58:03.713Z,60.32
2023-01-18T03:00:35.657Z,60.12
2023-01-18T03:03:07.052Z,60.11
2023-01-18T03:05:37.837Z,59.84
2023-01-18T03:08:19.312Z,60.09
2023-01-18T03:11:11.564Z,60.43
2023-01-18T03:14:02.481Z,60.04
2023-01-18T03:16:40.694Z,60.08
2023-01-18T03:19:41.974Z,60.15
2023-01-18T03:22:11.801Z,60.62
2023-01-18T03:24:41.934Z,60.25
2023-01-18T03:27:30.074Z,60.32
2023-01-18T03:30:16.941Z,60.43
2023-01-18T03:33:04.398Z,60.65
2023-01-18T03:35:34.017Z,60.28
2023-01-18T03:38:02.834Z,60.43
2023-01-18T03:40:32.216Z,60.30
2023-01-18T03:43:15.760Z,60.05
2023-01-18T03:45:49.049Z,60.13
2023-01-18T03:48:18.235Z,60.07
2023-01-18T03:51:14.246Z,60.20
2023-01-18T03:54:10.127Z,60.33
2023-01-18T03:56:57.772Z,60.34
2023-01-18T03:59:31.304Z,59.91
2023-01-18T04:02:00.245Z,59.73
2023-01-18T04:04:28.839Z,59.99
2023-01-18T04:06:58.795Z,59.52
2023-01-18T04:09:28.174Z,59.63
2023-01-18T04:11:56.783Z,59.57
2023-01-18T04:14:25.599Z,59.46
2023-01-18T04:16:54.275Z,59.26
2023-01-18T04:19:22.812Z,60.01
2023-01-18T04:21:54.326Z,59.85
2023-01-18T04:24:22.825Z,59.25
2023-01-18T04:26:51.578Z,59.96
2023-01-18T04:29:20.206Z,59.23
2023-01-18T04:31:48.856Z,59.13
2023-01-18T04:34:17.715Z,59.47
2023-01-18T04:36:46.223Z,59.37
2023-01-18T04:39:15.095Z,58.91
2023-01-18T04:41:43.785Z,59.29
2023-01-18T04:44:13.659Z,59.10
2023-01-18T04:46:42.441Z,58.68
2023-01-18T04:49:16.219Z,59.47
2023-01-18T04:51:46.769Z,58.59
2023-01-18T04:54:17.757Z,59.16
2023-01-18T04:56:46.437Z,58.50
2023-01-18T04:59:16.901Z,58.78
2023-01-18T05:01:45.769Z,58.44
2023-01-18T05:04:14.459Z,58.63
2023-01-18T05:06:42.953Z,58.68
2023-01-18T05:09:13.289Z,58.50
2023-01-18T05:11:42.864Z,58.42
2023-01-18T05:14:11.459Z,59.30
2023-01-18T05:16:40.089Z,58.72
2023-01-18T05:19:09.981Z,58.60
2023-01-18T05:21:38.577Z,57.97
2023-01-18T05:24:07.601Z,58.30
2023-01-18T05:26:37.357Z,58.35
2023-01-18T05:29:06.015Z,58.68
2023-01-18T05:31:34.655Z,58.30
2023-01-18T05:34:03.539Z,58.43
2023-01-18T05:36:32.336Z,57.60
2023-01-18T05:39:00.886Z,57.86
2023-01-18T05:41:29.597Z,57.27
2023-01-18T05:43:58.335Z,58.34
2023-01-18T05:46:27.085Z,57.70
2023-01-18T05:48:59.783Z,57.38
2023-01-18T05:51:28.659Z,58.05
2023-01-18T05:53:57.297Z,57.70
2023-01-18T05:56:26.035Z,57.66
2023-01-18T05:58:54.806Z,58.05
2023-01-18T06:01:23.409Z,58.29
2023-01-18T06:03:52.075Z,57.07
2023-01-18T06:06:21.017Z,57.17
2023-01-18T06:08:49.576Z,57.20
2023-01-18T06:11:20.647Z,57.26
2023-01-18T06:13:49.597Z,57.23
2023-01-18T06:16:18.273Z,57.09
2023-01-18T06:18:47.110Z,56.31
2023-01-18T06:21:15.919Z,56.21
2023-01-18T06:23:44.629Z,55.94
2023-01-18T06:26:13.120Z,56.46
2023-01-18T06:28:42.183Z,56.70
2023-01-18T06:31:12.155Z,56.44
2023-01-18T06:33:40.912Z,56.54
2023-01-18T06:36:10.945Z,56.06
2023-01-18T06:38:39.704Z,56.07
2023-01-18T06:41:10.014Z,55.23
2023-01-18T06:43:38.703Z,55.29
2023-01-18T06:46:10.400Z,55.31
2023-01-18T06:48:41.617Z,55.60
2023-01-18T06:51:10.370Z,55.57
2023-01-18T06:53:39.512Z,55.49
2023-01-18T06:56:11.087Z,55.22
2023-01-18T06:58:39.942Z,55.74
2023-01-18T07:01:09.108Z,55.46
2023-01-18T07:03:39.520Z,54.94
2023-01-18T07:06:08.357Z,54.95
2023-01-18T07:08:36.736Z,55.09
2023-01-18T07:11:08.071Z,55.00
2023-01-18T07:13:40.619Z,55.05
2023-01-18T07:16:12.395Z,54.75
2023-01-18T07:18:44.678Z,54.24
2023-01-18T07:21:15.258Z,54.26
2023-01-18T07:23:44.537Z,54.22
2023-01-18T07:26:17.857Z,54.27
2023-01-18T07:28:47.901Z,54.04
2023-01-18T07:31:17.815Z,53.41
2023-01-18T07:33:46.496Z,53.78
2023-01-18T07:36:15.096Z,53.84
2023-01-18T07:38:43.856Z,53.80
2023-01-18T07:41:15.665Z,53.19
2023-01-18T07:43:46.619Z,53.59
2023-01-18T07:46:22.729Z,53.36
2023-01-18T07:48:54.419Z,53.39
2023-01-18T07:51:23.887Z,52.76
2023-01-18T07:53:56.011Z,53.86
2023-01-18T07:56:26.596Z,53.48
2023-01-18T07:58:56.496Z,53.25
2023-01-18T08:01:25.585Z,53.15
2023-01-18T08:03:55.451Z,52.98
2023-01-18T08:06:26.047Z,53.59
2023-01-18T08:08:57.821Z,53.46
2023-01-18T08:11:27.186Z,53.00
2023-01-18T08:13:55.944Z,52.84
2023-01-18T08:16:25.205Z,52.81
2023-01-18T08:18:55.310Z,53.48
2023-01-18T08:21:24.163Z,52.98
2023-01-18T08:23:55.991Z,53.11
2023-01-18T08:26:24.549Z,53.03
2023-01-18T08:28:53.311Z,53.96
2023-01-18T08:31:23.177Z,53.90
2023-01-18T08:33:51.764Z,53.35
2023-01-18T08:36:23.236Z,53.79
2023-01-18T08:38:53.786Z,54.39
2023-01-18T08:41:24.716Z,53.54
2023-01-18T08:43:53.535Z,53.60
2023-01-18T08:46:23.068Z,54.51
2023-01-18T08:48:56.941Z,53.27
2023-01-18T08:51:28.103Z,54.47
2023-01-18T08:53:57.898Z,53.88
2023-01-18T08:56:27.336Z,53.74
2023-01-18T08:58:56.625Z,54.29
2023-01-18T09:01:27.331Z,54.03
2023-01-18T09:03:56.935Z,53.67
2023-01-18T09:06:26.575Z,54.16
2023-01-18T09:08:55.377Z,54.33
2023-01-18T09:11:23.942Z,54.00
2023-01-18T09:14:01.231Z,54.27
2023-01-18T09:16:32.046Z,54.27
2023-01-18T09:19:00.801Z,54.78
2023-01-18T09:21:29.577Z,54.50
2023-01-18T09:24:00.002Z,54.46
2023-01-18T09:26:29.717Z,54.10
2023-01-18T09:28:58.324Z,54.60
2023-01-18T09:31:29.593Z,54.71
2023-01-18T09:34:17.428Z,54.43
2023-01-18T09:36:50.158Z,54.45
2023-01-18T09:39:20.705Z,54.68
2023-01-18T09:41:59.163Z,54.32
2023-01-18T09:44:39.583Z,54.67
2023-01-18T09:47:14.415Z,54.75
2023-01-18T09:49:57.056Z,54.27
2023-01-18T09:52:50.164Z,53.98
2023-01-18T09:55:39.006Z,54.47
2023-01-18T09:58:19.976Z,54.79
2023-01-18T10:00:50.282Z,54.68
2023-01-18T10:03:21.021Z,54.96
2023-01-18T10:06:16.680Z,54.66
2023-01-18T10:08:55.199Z,54.62
2023-01-18T10:11:34.776Z,54.90
2023-01-18T10:14:16.196Z,54.98
2023-01-18T10:16:49.245Z,54.97
2023-01-18T10:19:25.956Z,54.71
2023-01-18T10:22:07.682Z,54.85
2023-01-18T10:24:39.255Z,54.60
2023-01-18T10:27:36.664Z,54.75
2023-01-18T10:30:23.181Z,54.97
2023-01-18T10:32:59.957Z,55.57
2023-01-18T10:35:39.377Z,55.24
2023-01-18T10:38:16.038Z,55.83
2023-01-18T10:40:51.183Z,55.05
2023-01-18T10:43:25.745Z,55.30
2023-01-18T10:45:55.327Z,55.81
2023-01-18T10:48:33.239Z,55.58
2023-01-18T10:51:07.440Z,55.24
2023-01-18T10:53:39.219Z,55.32
2023-01-18T10:56:10.956Z,56.29
2023-01-18T10:58:44.827Z,55.78
2023-01-18T11:01:44.107Z,55.50
2023-01-18T11:04:26.320Z,55.82
2023-01-18T11:07:01.767Z,55.48
2023-01-18T11:09:56.267Z,55.83
2023-01-18T11:12:45.077Z,55.66
2023-01-18T11:15:16.833Z,56.51
2023-01-18T11:17:58.121Z,56.41
2023-01-18T11:20:37.678Z,56.04
2023-01-18T11:23:14.899Z,56.22
2023-01-18T11:26:13.704Z,56.80
2023-01-18T11:29:06.281Z,56.66
2023-01-18T11:31:48.032Z,56.22
2023-01-18T11:34:32.675Z,56.28
2023-01-18T11:37:02.588Z,56.22
2023-01-18T11:39:35.366Z,56.31
2023-01-18T11:42:14.901Z,57.82
2023-01-18T11:45:05.499Z,57.45
2023-01-18T11:47:58.026Z,56.93
2023-01-18T11:50:47.472Z,57.44
2023-01-18T11:53:57.438Z,56.85
2023-01-18T11:56:26.247Z,57.38
2023-01-18T11:58:56.463Z,56.86
2023-01-18T12:01:44.397Z,56.68
2023-01-18T12:04:46.870Z,56.60
2023-01-18T12:07:22.670Z,56.67
2023-01-18T12:09:56.923Z,57.48
2023-01-18T12:12:45.661Z,57.25
2023-01-18T12:15:25.995Z,57.21
2023-01-18T12:18:13.219Z,57.29
2023-01-18T12:20:54.673Z,57.31
2023-01-18T12:23:26.312Z,57.37
2023-01-18T12:26:12.136Z,58.13
2023-01-18T12:29:07.900Z,57.94
2023-01-18T12:31:59.691Z,57.14
2023-01-18T12:34:59.792Z,57.18
2023-01-18T12:38:13.651Z,58.35
2023-01-18T12:40:59.093Z,58.16
2023-01-18T12:43:51.957Z,57.71
2023-01-18T12:46:33.246Z,58.25
2023-01-18T12:49:19.747Z,58.42
2023-01-18T12:52:13.014Z,58.33
2023-01-18T12:54:56.335Z,58.33
2023-01-18T12:57:26.538Z,58.22
2023-01-18T13:00:21.005Z,58.60
2023-01-18T13:02:52.586Z,57.85
2023-01-18T13:05:36.082Z,58.61
2023-01-18T13:08:27.449Z,58.50
2023-01-18T13:11:21.775Z,58.05
2023-01-18T13:13:59.098Z,58.86
2023-01-18T13:16:51.376Z,58.64
2023-01-18T13:19:30.817Z,58.96
2023-01-18T13:22:46.032Z,58.92
2023-01-18T13:25:25.123Z,60.09
2023-01-18T13:28:15.075Z,58.68
2023-01-18T13:30:57.253Z,59.00
2023-01-18T13:33:30.646Z,59.54
2023-01-18T13:36:13.195Z,59.14
2023-01-18T13:38:52.832Z,59.25
2023-01-18T13:41:28.641Z,59.84
2023-01-18T13:44:02.734Z,60.03
2023-01-18T13:46:34.777Z,60.01
2023-01-18T13:49:36.310Z,60.28
2023-01-18T13:52:31.595Z,59.59
2023-01-18T13:55:20.174Z,60.03
2023-01-18T13:57:56.515Z,59.60
2023-01-18T14:00:28.060Z,59.70
2023-01-18T14:03:17.281Z,60.05
2023-01-18T14:05:49.414Z,60.22
2023-01-18T14:08:33.784Z,60.41
2023-01-18T14:11:28.478Z,60.67
2023-01-18T14:14:01.797Z,60.70
2023-01-18T14:16:41.857Z,60.09
2023-01-18T14:19:23.759Z,60.41
2023-01-18T14:22:19.264Z,60.77
2023-01-18T14:25:03.432Z,60.60
2023-01-18T14:27:41.770Z,60.13
2023-01-18T14:30:19.691Z,60.59
2023-01-18T14:33:06.051Z,60.52
2023-01-18T14:35:37.594Z,60.56
2023-01-18T14:38:18.556Z,60.70
2023-01-18T14:40:52.188Z,60.63
2023-01-18T14:43:43.095Z,60.01
2023-01-18T14:46:33.638Z,60.71
2023-01-18T14:49:02.532Z,59.63
2023-01-18T14:51:31.596Z,60.43
2023-01-18T14:54:02.811Z,60.04
2023-01-18T14:56:35.791Z,60.08
2023-01-18T14:59:19.136Z,60.26
2023-01-18T15:02:18.521Z,59.92
2023-01-18T15:04:48.249Z,59.81
2023-01-18T15:07:34.648Z,60.20
2023-01-18T15:10:04.429Z,61.05
2023-01-18T15:12:34.257Z,60.27
2023-01-18T15:15:10.428Z,61.39
2023-01-18T15:17:39.381Z,61.06
2023-01-18T15:20:15.307Z,61.28
2023-01-18T15:22:44.610Z,60.45
2023-01-18T15:25:28.334Z,61.23
2023-01-18T15:28:06.441Z,60.39
2023-01-18T15:30:40.607Z,60.80
2023-01-18T15:33:10.950Z,61.55
2023-01-18T15:35:40.517Z,61.03
2023-01-18T15:38:12.120Z,61.64
2023-01-18T15:40:53.944Z,61.33
2023-01-18T15:43:31.682Z,61.34
2023-01-18T15:46:01.806Z,60.87
2023-01-18T15:48:38.078Z,61.13
2023-01-18T15:51:09.818Z,60.73
2023-01-18T15:53:53.365Z,61.36
2023-01-18T15:56:31.167Z,61.50
2023-01-18T15:59:03.063Z,61.13
2023-01-18T16:01:36.605Z,60.70
2023-01-18T16:04:22.599Z,61.24
2023-01-18T16:06:51.269Z,60.31
2023-01-18T16:09:23.938Z,61.04
2023-01-18T16:11:54.916Z,60.49
2023-01-18T16:14:35.261Z,61.67
2023-01-18T16:17:05.276Z,60.86
2023-01-18T16:19:36.941Z,60.99
2023-01-18T16:22:18.303Z,62.14
2023-01-18T16:24:52.644Z,61.26
2023-01-18T16:27:24.489Z,61.05
2023-01-18T16:30:23.545Z,60.74
2023-01-18T16:32:52.787Z,60.53
2023-01-18T16:35:24.060Z,61.62
2023-01-18T16:37:52.875Z,60.51
2023-01-18T16:40:23.642Z,60.81
2023-01-18T16:43:05.880Z,61.75
2023-01-18T16:45:38.724Z,61.41
2023-01-18T16:48:10.668Z,60.91
2023-01-18T16:50:39.401Z,60.85
2023-01-18T16:53:08.205Z,61.16
2023-01-18T16:55:37.608Z,60.90
2023-01-18T16:58:06.351Z,61.27
2023-01-18T17:01:06.578Z,62.63
2023-01-18T17:03:36.778Z,61.33
2023-01-18T17:06:05.468Z,60.88
2023-01-18T17:08:35.572Z,61.73
2023-01-18T17:11:05.828Z,61.29
2023-01-18T17:13:35.169Z,61.46
2023-01-18T17:16:04.230Z,61.85
2023-01-18T17:18:32.847Z,61.07
2023-01-18T17:21:01.670Z,60.81
2023-01-18T17:23:30.265Z,61.80
2023-01-18T17:26:00.304Z,61.52
2023-01-18T17:28:31.164Z,61.82
2023-01-18T17:30:59.595Z,61.11
2023-01-18T17:33:28.511Z,61.49
2023-01-18T17:35:57.234Z,61.69
2023-01-18T17:38:29.247Z,60.94
2023-01-18T17:40:59.031Z,61.61
2023-01-18T17:43:33.771Z,61.28
2023-01-18T17:46:06.867Z,61.23
2023-01-18T17:48:35.644Z,61.18
2023-01-18T17:51:08.991Z,62.10
2023-01-18T17:53:39.152Z,60.74
2023-01-18T17:56:19.174Z,61.43
2023-01-18T17:58:52.853Z,61.16
2023-01-18T18:01:22.061Z,61.11
2023-01-18T18:03:53.097Z,61.16
2023-01-18T18:06:31.017Z,60.50
2023-01-18T18:09:03.809Z,60.92
2023-01-18T18:11:32.526Z,62.07
2023-01-18T18:14:02.337Z,61.21
2023-01-18T18:16:32.831Z,61.79
2023-01-18T18:19:03.071Z,61.69
2023-01-18T18:21:31.677Z,61.88
2023-01-18T18:24:00.313Z,62.04
2023-01-18T18:26:29.072Z,61.90
2023-01-18T18:28:57.921Z,61.94
2023-01-18T18:31:26.619Z,61.53
2023-01-18T18:33:55.388Z,60.65
2023-01-18T18:36:27.976Z,61.27
2023-01-18T18:39:02.189Z,61.63
2023-01-18T18:41:31.021Z,61.02
2023-01-18T18:43:59.811Z,61.72
2023-01-18T18:46:28.898Z,61.67
2023-01-18T18:48:58.191Z,61.97
2023-01-18T18:51:27.040Z,61.49
2023-01-18T18:53:55.640Z,61.25
2023-01-18T18:56:24.691Z,61.59
2023-01-18T18:58:53.210Z,61.32
2023-01-18T19:01:25.113Z,61.59
2023-01-18T19:03:54.819Z,61.77
2023-01-18T19:06:25.982Z,61.72
2023-01-18T19:08:54.840Z,61.36
2023-01-18T19:11:23.821Z,62.01
2023-01-18T19:13:54.653Z,61.81
2023-01-18T19:16:23.734Z,61.65
2023-01-18T19:18:52.691Z,61.77
2023-01-18T19:21:21.315Z,61.22
2023-01-18T19:23:50.132Z,61.64
2023-01-18T19:26:18.908Z,61.79
2023-01-18T19:28:48.086Z,61.69
2023-01-18T19:31:17.101Z,61.76
2023-01-18T19:33:45.856Z,61.40
2023-01-18T19:36:16.867Z,62.38
2023-01-18T19:38:52.581Z,61.89
2023-01-18T19:41:26.801Z,62.47
2023-01-18T19:43:55.573Z,61.58
2023-01-18T19:46:24.293Z,62.20
2023-01-18T19:49:00.314Z,62.67
2023-01-18T19:51:29.500Z,62.38
2023-01-18T19:54:01.869Z,62.85
2023-01-18T19:56:31.213Z,62.08
2023-01-18T19:58:59.847Z,62.89
2023-01-18T20:01:36.397Z,61.88
2023-01-18T20:04:08.780Z,62.18
2023-01-18T20:06:40.883Z,62.86
2023-01-18T20:09:19.043Z,62.11
2023-01-18T20:11:49.739Z,62.99
2023-01-18T20:14:19.148Z,62.96
2023-01-18T20:16:48.688Z,63.27
2023-01-18T20:19:18.507Z,62.36
2023-01-18T20:21:47.452Z,62.52
2023-01-18T20:24:17.273Z,62.38
2023-01-18T20:26:45.988Z,62.72
2023-01-18T20:29:14.598Z,63.53
2023-01-18T20:31:49.584Z,62.91
2023-01-18T20:34:18.732Z,63.62
2023-01-18T20:36:50.828Z,62.95
2023-01-18T20:39:20.788Z,63.04
2023-01-18T20:41:50.968Z,63.67
2023-01-18T20:44:19.927Z,63.60
2023-01-18T20:46:49.329Z,63.29
2023-01-18T20:49:22.464Z,63.66
2023-01-18T20:51:56.096Z,63.39
2023-01-18T20:54:24.850Z,63.95
2023-01-18T20:56:53.806Z,63.71
2023-01-18T20:59:22.610Z,63.87
2023-01-18T21:01:51.487Z,63.57
2023-01-18T21:04:22.804Z,63.90
2023-01-18T21:06:51.453Z,63.55
2023-01-18T21:09:20.428Z,64.15
2023-01-18T21:11:49.067Z,63.60
2023-01-18T21:14:17.769Z,63.59
2023-01-18T21:16:46.797Z,63.64
2023-01-18T21:19:15.581Z,63.56
2023-01-18T21:21:45.451Z,63.31
2023-01-18T21:24:14.391Z,63.54
2023-01-18T21:26:43.348Z,63.49
2023-01-18T21:29:12.091Z,64.17
2023-01-18T21:31:44.006Z,64.01
2023-01-18T21:34:12.831Z,63.60
2023-01-18T21:36:41.650Z,64.25
2023-01-18T21:39:19.219Z,64.26
2023-01-18T21:42:06.463Z,64.09
2023-01-18T21:44:54.068Z,63.91
2023-01-18T21:47:23.609Z,64.05
2023-01-18T21:50:17.467Z,64.33
2023-01-18T21:53:04.708Z,63.85
2023-01-18T21:55:33.797Z,64.04
2023-01-18T21:58:20.629Z,64.01
2023-01-18T22:00:49.454Z,64.66
2023-01-18T22:03:19.188Z,64.21
2023-01-18T22:05:48.693Z,64.22
2023-01-18T22:08:17.333Z,64.32
2023-01-18T22:10:49.167Z,64.24
2023-01-18T22:13:17.827Z,64.29
2023-01-18T22:15:47.793Z,64.51
2023-01-18T22:18:16.685Z,64.22
2023-01-18T22:20:45.347Z,64.57
2023-01-18T22:23:14.088Z,65.29
2023-01-18T22:25:42.947Z,65.38
2023-01-18T22:28:11.749Z,65.16
2023-01-18T22:30:41.539Z,64.58
2023-01-18T22:33:10.267Z,64.73
2023-01-18T22:35:39.073Z,64.72
2023-01-18T22:38:10.449Z,65.06
2023-01-18T22:40:39.529Z,64.43
2023-01-18T22:43:10.830Z,64.80
2023-01-18T22:45:39.573Z,64.93
2023-01-18T22:48:08.491Z,64.97
2023-01-18T22:50:37.080Z,65.40
2023-01-18T22:53:06.610Z,64.71
2023-01-18T22:55:35.523Z,65.14
2023-01-18T22:58:04.510Z,65.01
2023-01-18T23:00:33.358Z,65.32
2023-01-18T23:03:02.128Z,65.51
2023-01-18T23:05:31.140Z,65.58
2023-01-18T23:07:59.968Z,65.12
2023-01-18T23:10:28.950Z,65.44
2023-01-18T23:12:57.736Z,65.19
2023-01-18T23:15:44.637Z,65.24
2023-01-18T23:18:13.735Z,65.40
2023-01-18T23:20:42.679Z,65.63
2023-01-18T23:23:11.493Z,65.36
2023-01-18T23:25:40.390Z,65.63
2023-01-18T23:28:09.030Z,65.17
2023-01-18T23:30:37.606Z,65.12
2023-01-18T23:33:06.407Z,65.23
2023-01-18T23:35:35.080Z,65.29
2023-01-18T23:38:07.154Z,65.42
2023-01-18T23:40:55.687Z,65.34
2023-01-18T23:43:42.645Z,65.21
2023-01-18T23:46:29.904Z,65.74
2023-01-18T23:49:16.610Z,65.82
2023-01-18T23:52:03.652Z,65.44
2023-01-18T23:54:32.292Z,65.86
2023-01-18T23:57:01.308Z,65.20
2023-01-18T23:59:30.332Z,65.31
